Airfield :
LOGIN :

Register | Disclaimer

   EN    FR    IT 

 










Legend :    VFR   Marginal VFR   IFR   Intensive IFR   Very Intensive IFR
Visi :
Ceiling :
>= 8 km
>= 3000ft
5 to 8 km
1000 to 3000 ft
1500m to 5 km
500 to 1000 ft
800 to 1500m
200 to 500 ft
< 800m
< 200 ft
Symbols :   Thunderstorms  Fog  Heavy snow  Heavy precipitations  Wind > 20 kt
SIGMETs :     Misc.  Thunderstorms  Icing  Turbulence  Mountain Waves  Volcanic Ashes







- Airport Elevation : 844 ft
- IATA code : OSR


LKMT - Ostrava-Mosnov

CURRENT METAR :
  • 200900Z 23007KT 9999 BKN011 01/M00 Q1011 R04/59//95 NOSIG

EXPIRED METARs :
  • 200848Z 23007KT 8000 BKN011 01/M00 Q1011 R04/59//95 RMK REG QNH 1004
  • 200830Z 23008KT 9000 SCT011 00/M01 Q1011 NOSIG
  • 200800Z 22009KT 5000 -SN FEW020 00/M01 Q1011 TEMPO 8000 NSW
  • 200730Z 22009KT CAVOK 00/M02 Q1011 NOSIG
  • 200700Z 20011KT 9999 SCT041 00/M01 Q1011 NOSIG
  • 200640Z 22010KT 7000 -SN BKN036 00/M01 Q1010 RMK REG QNH 1004
  • 200630Z 22010KT 9999 FEW043 M00/M01 Q1010 TEMPO 5000 -SN

TAF TAF LKMT
Valid from the 20 at 06:00 until the 21 at 12:00 UTC


200500Z 2006/2112 22007KT 9999 BKN020
TEMPO 2012/2021 VRB02KT 1300 SN OVC004
BECMG 2102/2105 03005KT 3000 -SN BKN013
TEMPO 2105/2112 1200 SN OVC004
No reported NOTAMs for that airfield.



MET'MAP, your aeronautical weather chart ! - Copyright ORBIFLY December 2007 - Disclaimer

ORBIFLY MET'MAP TEAM :

Programming & Development : Alexandra Zaïnal
Concept & Development : Baudouin d'Aumeries
Co-Development & Prog : Marc-Olivier Méhu
Technical & hardware support : Manuel Goepfert

Contact : metmap@orbifly.com




SOURCES & CREDITS :

   NOAA